sensor_id;sensor_type;location;lat;lon;timestamp;P1;durP1;ratioP1;P2;durP2;ratioP2
80983;SDS011;73733;53.046;8.724;2024-02-15T00:00:35;2.92;;;2.08;;
80983;SDS011;73733;53.046;8.724;2024-02-15T00:03:00;2.95;;;2.08;;
80983;SDS011;73733;53.046;8.724;2024-02-15T00:05:26;3.63;;;2.65;;
80983;SDS011;73733;53.046;8.724;2024-02-15T00:07:51;4.33;;;2.73;;
80983;SDS011;73733;53.046;8.724;2024-02-15T00:10:16;4.17;;;2.40;;
80983;SDS011;73733;53.046;8.724;2024-02-15T00:12:42;4.15;;;2.88;;
80983;SDS011;73733;53.046;8.724;2024-02-15T00:15:07;3.87;;;2.50;;
80983;SDS011;73733;53.046;8.724;2024-02-15T00:17:33;4.03;;;2.80;;
80983;SDS011;73733;53.046;8.724;2024-02-15T00:19:59;4.35;;;2.92;;
80983;SDS011;73733;53.046;8.724;2024-02-15T00:22:25;5.57;;;3.40;;
80983;SDS011;73733;53.046;8.724;2024-02-15T00:24:50;4.25;;;2.78;;
80983;SDS011;73733;53.046;8.724;2024-02-15T00:27:16;4.72;;;2.90;;
80983;SDS011;73733;53.046;8.724;2024-02-15T00:29:41;4.40;;;3.10;;
80983;SDS011;73733;53.046;8.724;2024-02-15T00:32:07;5.72;;;3.20;;
80983;SDS011;73733;53.046;8.724;2024-02-15T00:34:33;4.55;;;2.75;;
80983;SDS011;73733;53.046;8.724;2024-02-15T00:36:59;5.13;;;2.97;;
80983;SDS011;73733;53.046;8.724;2024-02-15T00:39:24;5.63;;;3.42;;
80983;SDS011;73733;53.046;8.724;2024-02-15T00:41:49;4.47;;;3.37;;
80983;SDS011;73733;53.046;8.724;2024-02-15T00:44:15;4.57;;;3.28;;
80983;SDS011;73733;53.046;8.724;2024-02-15T00:46:40;4.83;;;3.03;;
80983;SDS011;73733;53.046;8.724;2024-02-15T00:49:06;4.90;;;2.90;;
80983;SDS011;73733;53.046;8.724;2024-02-15T00:51:35;4.65;;;3.25;;
80983;SDS011;73733;53.046;8.724;2024-02-15T00:54:01;5.10;;;3.72;;
80983;SDS011;73733;53.046;8.724;2024-02-15T00:56:27;4.93;;;3.47;;
80983;SDS011;73733;53.046;8.724;2024-02-15T00:58:53;4.82;;;3.00;;
80983;SDS011;73733;53.046;8.724;2024-02-15T01:01:18;4.78;;;3.03;;
80983;SDS011;73733;53.046;8.724;2024-02-15T01:03:43;4.97;;;3.50;;
80983;SDS011;73733;53.046;8.724;2024-02-15T01:06:08;6.00;;;3.37;;
80983;SDS011;73733;53.046;8.724;2024-02-15T01:08:34;6.00;;;3.23;;
80983;SDS011;73733;53.046;8.724;2024-02-15T01:10:59;6.07;;;3.37;;
80983;SDS011;73733;53.046;8.724;2024-02-15T01:13:24;5.15;;;3.28;;
80983;SDS011;73733;53.046;8.724;2024-02-15T01:15:50;5.55;;;3.22;;
80983;SDS011;73733;53.046;8.724;2024-02-15T01:18:15;6.33;;;3.70;;
80983;SDS011;73733;53.046;8.724;2024-02-15T01:20:41;6.60;;;3.40;;
80983;SDS011;73733;53.046;8.724;2024-02-15T01:23:06;5.77;;;3.73;;
80983;SDS011;73733;53.046;8.724;2024-02-15T01:25:32;4.82;;;3.25;;
80983;SDS011;73733;53.046;8.724;2024-02-15T01:27:58;5.10;;;3.38;;
80983;SDS011;73733;53.046;8.724;2024-02-15T01:30:23;4.97;;;3.43;;
80983;SDS011;73733;53.046;8.724;2024-02-15T01:32:48;4.60;;;3.10;;
80983;SDS011;73733;53.046;8.724;2024-02-15T01:35:14;5.77;;;3.57;;
80983;SDS011;73733;53.046;8.724;2024-02-15T01:37:39;5.03;;;3.37;;
80983;SDS011;73733;53.046;8.724;2024-02-15T01:40:05;5.60;;;2.97;;
80983;SDS011;73733;53.046;8.724;2024-02-15T01:42:31;3.85;;;2.72;;
80983;SDS011;73733;53.046;8.724;2024-02-15T01:44:57;4.50;;;3.40;;
80983;SDS011;73733;53.046;8.724;2024-02-15T01:47:22;5.00;;;3.15;;
80983;SDS011;73733;53.046;8.724;2024-02-15T01:49:47;5.30;;;2.93;;
80983;SDS011;73733;53.046;8.724;2024-02-15T01:52:13;4.85;;;3.25;;
80983;SDS011;73733;53.046;8.724;2024-02-15T01:57:06;4.30;;;2.80;;
80983;SDS011;73733;53.046;8.724;2024-02-15T01:59:32;4.25;;;2.92;;
80983;SDS011;73733;53.046;8.724;2024-02-15T02:01:57;4.28;;;2.58;;
80983;SDS011;73733;53.046;8.724;2024-02-15T02:04:23;5.43;;;2.90;;
80983;SDS011;73733;53.046;8.724;2024-02-15T02:06:48;4.27;;;2.67;;
80983;SDS011;73733;53.046;8.724;2024-02-15T02:09:13;5.47;;;2.93;;
80983;SDS011;73733;53.046;8.724;2024-02-15T02:11:39;3.67;;;2.58;;
80983;SDS011;73733;53.046;8.724;2024-02-15T02:14:05;4.90;;;2.75;;
80983;SDS011;73733;53.046;8.724;2024-02-15T02:16:31;4.57;;;2.90;;
80983;SDS011;73733;53.046;8.724;2024-02-15T02:19:04;4.32;;;2.70;;
80983;SDS011;73733;53.046;8.724;2024-02-15T02:21:34;4.15;;;2.92;;
80983;SDS011;73733;53.046;8.724;2024-02-15T02:24:00;4.85;;;3.00;;
80983;SDS011;73733;53.046;8.724;2024-02-15T02:26:31;4.50;;;3.38;;
80983;SDS011;73733;53.046;8.724;2024-02-15T02:28:56;4.20;;;2.87;;
80983;SDS011;73733;53.046;8.724;2024-02-15T02:31:22;4.80;;;3.13;;
80983;SDS011;73733;53.046;8.724;2024-02-15T02:33:50;6.28;;;2.83;;
80983;SDS011;73733;53.046;8.724;2024-02-15T02:36:17;5.18;;;3.10;;
80983;SDS011;73733;53.046;8.724;2024-02-15T02:38:42;5.70;;;3.63;;
80983;SDS011;73733;53.046;8.724;2024-02-15T02:41:10;6.35;;;3.60;;
80983;SDS011;73733;53.046;8.724;2024-02-15T02:43:35;5.22;;;3.60;;
80983;SDS011;73733;53.046;8.724;2024-02-15T02:46:02;5.70;;;3.50;;
80983;SDS011;73733;53.046;8.724;2024-02-15T02:48:29;3.63;;;2.55;;
80983;SDS011;73733;53.046;8.724;2024-02-15T02:50:55;4.55;;;3.00;;
80983;SDS011;73733;53.046;8.724;2024-02-15T02:53:20;6.28;;;3.70;;
80983;SDS011;73733;53.046;8.724;2024-02-15T02:55:45;6.10;;;3.00;;
80983;SDS011;73733;53.046;8.724;2024-02-15T02:58:11;5.30;;;2.90;;
80983;SDS011;73733;53.046;8.724;2024-02-15T03:00:36;4.80;;;2.92;;
80983;SDS011;73733;53.046;8.724;2024-02-15T03:03:02;7.47;;;3.45;;
80983;SDS011;73733;53.046;8.724;2024-02-15T03:05:28;5.65;;;3.63;;
80983;SDS011;73733;53.046;8.724;2024-02-15T03:07:54;5.50;;;3.22;;
80983;SDS011;73733;53.046;8.724;2024-02-15T03:10:19;5.38;;;3.25;;
80983;SDS011;73733;53.046;8.724;2024-02-15T03:12:45;5.65;;;3.55;;
80983;SDS011;73733;53.046;8.724;2024-02-15T03:15:12;5.78;;;3.72;;
80983;SDS011;73733;53.046;8.724;2024-02-15T03:17:40;5.82;;;3.63;;
80983;SDS011;73733;53.046;8.724;2024-02-15T03:20:06;5.90;;;3.65;;
80983;SDS011;73733;53.046;8.724;2024-02-15T03:22:37;6.13;;;3.80;;
80983;SDS011;73733;53.046;8.724;2024-02-15T03:25:06;5.75;;;3.58;;
80983;SDS011;73733;53.046;8.724;2024-02-15T03:27:33;6.20;;;3.67;;
80983;SDS011;73733;53.046;8.724;2024-02-15T03:30:00;7.50;;;4.38;;
80983;SDS011;73733;53.046;8.724;2024-02-15T03:32:25;7.80;;;3.97;;
80983;SDS011;73733;53.046;8.724;2024-02-15T03:34:51;6.80;;;3.67;;
80983;SDS011;73733;53.046;8.724;2024-02-15T03:37:16;6.67;;;3.77;;
80983;SDS011;73733;53.046;8.724;2024-02-15T03:39:43;6.30;;;4.10;;
80983;SDS011;73733;53.046;8.724;2024-02-15T03:42:08;5.40;;;3.87;;
80983;SDS011;73733;53.046;8.724;2024-02-15T03:44:33;7.37;;;3.87;;
80983;SDS011;73733;53.046;8.724;2024-02-15T03:46:58;8.57;;;4.27;;
80983;SDS011;73733;53.046;8.724;2024-02-15T03:49:24;6.47;;;3.73;;
80983;SDS011;73733;53.046;8.724;2024-02-15T03:51:49;7.27;;;4.33;;
80983;SDS011;73733;53.046;8.724;2024-02-15T03:54:14;5.63;;;3.43;;
80983;SDS011;73733;53.046;8.724;2024-02-15T03:56:46;6.93;;;3.83;;
80983;SDS011;73733;53.046;8.724;2024-02-15T03:59:20;7.22;;;3.72;;
80983;SDS011;73733;53.046;8.724;2024-02-15T04:01:52;6.57;;;4.00;;
80983;SDS011;73733;53.046;8.724;2024-02-15T04:04:20;5.80;;;4.05;;
80983;SDS011;73733;53.046;8.724;2024-02-15T04:06:49;6.80;;;4.25;;
80983;SDS011;73733;53.046;8.724;2024-02-15T04:09:15;5.90;;;3.42;;
80983;SDS011;73733;53.046;8.724;2024-02-15T04:14:07;6.60;;;3.53;;
80983;SDS011;73733;53.046;8.724;2024-02-15T04:16:32;6.53;;;4.03;;
80983;SDS011;73733;53.046;8.724;2024-02-15T04:18:58;8.48;;;4.00;;
80983;SDS011;73733;53.046;8.724;2024-02-15T04:21:24;5.25;;;3.42;;
80983;SDS011;73733;53.046;8.724;2024-02-15T04:23:49;5.20;;;3.57;;
80983;SDS011;73733;53.046;8.724;2024-02-15T04:26:16;5.93;;;3.25;;
80983;SDS011;73733;53.046;8.724;2024-02-15T04:28:42;6.95;;;3.45;;
80983;SDS011;73733;53.046;8.724;2024-02-15T04:31:07;6.93;;;4.70;;
80983;SDS011;73733;53.046;8.724;2024-02-15T04:33:34;5.85;;;3.22;;
80983;SDS011;73733;53.046;8.724;2024-02-15T04:35:59;5.50;;;3.67;;
80983;SDS011;73733;53.046;8.724;2024-02-15T04:38:27;6.97;;;4.07;;
80983;SDS011;73733;53.046;8.724;2024-02-15T04:40:52;5.40;;;3.67;;
80983;SDS011;73733;53.046;8.724;2024-02-15T04:43:18;5.72;;;3.63;;
80983;SDS011;73733;53.046;8.724;2024-02-15T04:45:44;5.57;;;3.83;;
80983;SDS011;73733;53.046;8.724;2024-02-15T04:48:10;6.55;;;4.22;;
80983;SDS011;73733;53.046;8.724;2024-02-15T04:50:38;6.80;;;3.92;;
80983;SDS011;73733;53.046;8.724;2024-02-15T04:53:04;7.03;;;4.25;;
80983;SDS011;73733;53.046;8.724;2024-02-15T04:55:30;5.60;;;3.45;;
80983;SDS011;73733;53.046;8.724;2024-02-15T04:57:56;5.88;;;2.97;;
80983;SDS011;73733;53.046;8.724;2024-02-15T05:00:22;5.87;;;4.07;;
80983;SDS011;73733;53.046;8.724;2024-02-15T05:02:48;6.32;;;4.28;;
80983;SDS011;73733;53.046;8.724;2024-02-15T05:05:14;11.15;;;4.70;;
80983;SDS011;73733;53.046;8.724;2024-02-15T05:07:40;6.50;;;3.80;;
80983;SDS011;73733;53.046;8.724;2024-02-15T05:10:06;7.30;;;3.20;;
80983;SDS011;73733;53.046;8.724;2024-02-15T05:12:32;6.13;;;4.55;;
80983;SDS011;73733;53.046;8.724;2024-02-15T05:14:58;6.43;;;3.90;;
80983;SDS011;73733;53.046;8.724;2024-02-15T05:17:27;5.97;;;3.33;;
80983;SDS011;73733;53.046;8.724;2024-02-15T05:19:55;5.20;;;3.03;;
80983;SDS011;73733;53.046;8.724;2024-02-15T05:22:24;6.05;;;3.60;;
80983;SDS011;73733;53.046;8.724;2024-02-15T05:24:52;5.57;;;3.80;;
80983;SDS011;73733;53.046;8.724;2024-02-15T05:27:17;6.93;;;3.72;;
80983;SDS011;73733;53.046;8.724;2024-02-15T05:29:43;8.33;;;4.03;;
80983;SDS011;73733;53.046;8.724;2024-02-15T05:32:08;8.57;;;5.23;;
80983;SDS011;73733;53.046;8.724;2024-02-15T05:34:34;8.07;;;4.30;;
80983;SDS011;73733;53.046;8.724;2024-02-15T05:37:01;6.72;;;4.25;;
80983;SDS011;73733;53.046;8.724;2024-02-15T05:39:26;6.70;;;4.10;;
80983;SDS011;73733;53.046;8.724;2024-02-15T05:41:52;8.37;;;4.83;;
80983;SDS011;73733;53.046;8.724;2024-02-15T05:44:17;6.80;;;4.73;;
80983;SDS011;73733;53.046;8.724;2024-02-15T05:46:43;7.75;;;4.55;;
80983;SDS011;73733;53.046;8.724;2024-02-15T05:49:09;7.10;;;4.10;;
80983;SDS011;73733;53.046;8.724;2024-02-15T05:51:40;9.48;;;4.57;;
80983;SDS011;73733;53.046;8.724;2024-02-15T05:54:05;6.87;;;4.40;;
80983;SDS011;73733;53.046;8.724;2024-02-15T05:56:30;6.40;;;4.13;;
80983;SDS011;73733;53.046;8.724;2024-02-15T05:58:56;7.73;;;4.30;;
80983;SDS011;73733;53.046;8.724;2024-02-15T06:01:22;8.23;;;4.70;;
80983;SDS011;73733;53.046;8.724;2024-02-15T06:03:48;8.75;;;3.90;;
80983;SDS011;73733;53.046;8.724;2024-02-15T06:06:14;6.15;;;3.72;;
80983;SDS011;73733;53.046;8.724;2024-02-15T06:08:39;5.10;;;3.20;;
80983;SDS011;73733;53.046;8.724;2024-02-15T06:11:04;6.93;;;4.43;;
80983;SDS011;73733;53.046;8.724;2024-02-15T06:13:30;7.00;;;4.38;;
80983;SDS011;73733;53.046;8.724;2024-02-15T06:15:56;6.18;;;3.70;;
80983;SDS011;73733;53.046;8.724;2024-02-15T06:18:22;5.77;;;3.80;;
80983;SDS011;73733;53.046;8.724;2024-02-15T06:20:52;5.85;;;3.88;;
80983;SDS011;73733;53.046;8.724;2024-02-15T06:23:18;5.65;;;3.20;;
80983;SDS011;73733;53.046;8.724;2024-02-15T06:25:44;5.60;;;3.53;;
80983;SDS011;73733;53.046;8.724;2024-02-15T06:28:12;6.72;;;3.83;;
80983;SDS011;73733;53.046;8.724;2024-02-15T06:30:56;4.82;;;2.97;;
80983;SDS011;73733;53.046;8.724;2024-02-15T06:33:41;5.00;;;3.03;;
80983;SDS011;73733;53.046;8.724;2024-02-15T06:39:09;5.18;;;3.40;;
80983;SDS011;73733;53.046;8.724;2024-02-15T06:41:53;6.18;;;3.45;;
80983;SDS011;73733;53.046;8.724;2024-02-15T06:44:19;6.00;;;3.90;;
80983;SDS011;73733;53.046;8.724;2024-02-15T06:46:44;5.63;;;3.72;;
80983;SDS011;73733;53.046;8.724;2024-02-15T06:49:11;7.38;;;3.90;;
80983;SDS011;73733;53.046;8.724;2024-02-15T06:51:36;6.50;;;3.88;;
80983;SDS011;73733;53.046;8.724;2024-02-15T06:54:02;5.80;;;3.93;;
80983;SDS011;73733;53.046;8.724;2024-02-15T06:56:27;6.07;;;3.78;;
80983;SDS011;73733;53.046;8.724;2024-02-15T06:58:53;5.67;;;3.40;;
80983;SDS011;73733;53.046;8.724;2024-02-15T07:01:19;5.00;;;3.00;;
80983;SDS011;73733;53.046;8.724;2024-02-15T07:03:44;4.97;;;3.13;;
80983;SDS011;73733;53.046;8.724;2024-02-15T07:06:10;5.60;;;3.58;;
80983;SDS011;73733;53.046;8.724;2024-02-15T07:08:38;6.13;;;4.25;;
80983;SDS011;73733;53.046;8.724;2024-02-15T07:11:05;4.65;;;3.05;;
80983;SDS011;73733;53.046;8.724;2024-02-15T07:13:34;5.18;;;3.25;;
80983;SDS011;73733;53.046;8.724;2024-02-15T07:16:02;5.70;;;4.15;;
80983;SDS011;73733;53.046;8.724;2024-02-15T07:18:32;6.07;;;3.42;;
80983;SDS011;73733;53.046;8.724;2024-02-15T07:20:57;6.07;;;4.00;;
80983;SDS011;73733;53.046;8.724;2024-02-15T07:23:25;5.22;;;3.70;;
80983;SDS011;73733;53.046;8.724;2024-02-15T07:25:50;5.57;;;3.47;;
80983;SDS011;73733;53.046;8.724;2024-02-15T07:28:18;5.72;;;4.13;;
80983;SDS011;73733;53.046;8.724;2024-02-15T07:30:44;5.85;;;4.15;;
80983;SDS011;73733;53.046;8.724;2024-02-15T07:35:36;7.03;;;4.40;;
80983;SDS011;73733;53.046;8.724;2024-02-15T07:38:02;7.32;;;4.22;;
80983;SDS011;73733;53.046;8.724;2024-02-15T07:40:30;7.78;;;4.10;;
80983;SDS011;73733;53.046;8.724;2024-02-15T07:42:58;7.43;;;3.92;;
80983;SDS011;73733;53.046;8.724;2024-02-15T07:45:24;5.90;;;3.67;;
80983;SDS011;73733;53.046;8.724;2024-02-15T07:47:49;7.03;;;4.77;;
80983;SDS011;73733;53.046;8.724;2024-02-15T07:50:17;4.63;;;2.90;;
80983;SDS011;73733;53.046;8.724;2024-02-15T07:52:48;7.32;;;4.45;;
80983;SDS011;73733;53.046;8.724;2024-02-15T07:55:14;5.82;;;4.43;;
80983;SDS011;73733;53.046;8.724;2024-02-15T07:57:39;5.82;;;4.07;;
80983;SDS011;73733;53.046;8.724;2024-02-15T08:00:05;5.17;;;3.80;;
80983;SDS011;73733;53.046;8.724;2024-02-15T08:02:35;6.38;;;3.33;;
80983;SDS011;73733;53.046;8.724;2024-02-15T08:05:01;5.68;;;3.35;;
80983;SDS011;73733;53.046;8.724;2024-02-15T08:07:30;5.50;;;3.83;;
80983;SDS011;73733;53.046;8.724;2024-02-15T08:09:58;8.00;;;3.97;;
80983;SDS011;73733;53.046;8.724;2024-02-15T08:12:24;5.53;;;3.80;;
80983;SDS011;73733;53.046;8.724;2024-02-15T08:14:51;6.03;;;4.57;;
80983;SDS011;73733;53.046;8.724;2024-02-15T08:17:16;6.72;;;4.43;;
80983;SDS011;73733;53.046;8.724;2024-02-15T08:19:42;6.80;;;4.57;;
80983;SDS011;73733;53.046;8.724;2024-02-15T08:22:07;6.33;;;4.23;;
80983;SDS011;73733;53.046;8.724;2024-02-15T08:24:33;7.47;;;4.05;;
80983;SDS011;73733;53.046;8.724;2024-02-15T08:26:58;6.53;;;3.65;;
80983;SDS011;73733;53.046;8.724;2024-02-15T08:29:24;7.32;;;5.00;;
80983;SDS011;73733;53.046;8.724;2024-02-15T08:31:50;6.28;;;4.65;;
80983;SDS011;73733;53.046;8.724;2024-02-15T08:34:15;7.93;;;3.90;;
80983;SDS011;73733;53.046;8.724;2024-02-15T08:36:43;5.65;;;3.80;;
80983;SDS011;73733;53.046;8.724;2024-02-15T08:39:08;5.47;;;4.33;;
80983;SDS011;73733;53.046;8.724;2024-02-15T08:41:36;6.22;;;4.22;;
80983;SDS011;73733;53.046;8.724;2024-02-15T08:44:02;6.53;;;4.50;;
80983;SDS011;73733;53.046;8.724;2024-02-15T08:46:31;9.07;;;5.00;;
80983;SDS011;73733;53.046;8.724;2024-02-15T08:48:56;5.25;;;3.88;;
80983;SDS011;73733;53.046;8.724;2024-02-15T08:51:21;6.77;;;4.23;;
80983;SDS011;73733;53.046;8.724;2024-02-15T08:53:47;6.88;;;4.30;;
80983;SDS011;73733;53.046;8.724;2024-02-15T08:56:13;6.17;;;4.80;;
80983;SDS011;73733;53.046;8.724;2024-02-15T08:58:38;6.37;;;4.37;;
80983;SDS011;73733;53.046;8.724;2024-02-15T09:01:05;8.93;;;5.20;;
80983;SDS011;73733;53.046;8.724;2024-02-15T09:03:32;7.45;;;5.50;;
80983;SDS011;73733;53.046;8.724;2024-02-15T09:05:57;8.77;;;6.13;;
80983;SDS011;73733;53.046;8.724;2024-02-15T09:08:24;11.55;;;5.82;;
80983;SDS011;73733;53.046;8.724;2024-02-15T09:10:49;9.47;;;5.90;;
80983;SDS011;73733;53.046;8.724;2024-02-15T09:13:15;8.30;;;5.70;;
80983;SDS011;73733;53.046;8.724;2024-02-15T09:15:40;9.00;;;5.75;;
80983;SDS011;73733;53.046;8.724;2024-02-15T09:18:06;8.82;;;6.28;;
80983;SDS011;73733;53.046;8.724;2024-02-15T09:20:34;8.02;;;4.72;;
80983;SDS011;73733;53.046;8.724;2024-02-15T09:23:02;10.40;;;5.35;;
80983;SDS011;73733;53.046;8.724;2024-02-15T09:25:34;8.68;;;5.43;;
80983;SDS011;73733;53.046;8.724;2024-02-15T09:27:59;9.57;;;6.03;;
80983;SDS011;73733;53.046;8.724;2024-02-15T09:30:24;9.20;;;5.93;;
80983;SDS011;73733;53.046;8.724;2024-02-15T09:32:52;8.15;;;6.00;;
80983;SDS011;73733;53.046;8.724;2024-02-15T09:35:18;9.50;;;5.45;;
80983;SDS011;73733;53.046;8.724;2024-02-15T09:37:45;10.15;;;6.40;;
80983;SDS011;73733;53.046;8.724;2024-02-15T09:40:11;8.80;;;6.32;;
80983;SDS011;73733;53.046;8.724;2024-02-15T09:42:37;9.02;;;6.50;;
80983;SDS011;73733;53.046;8.724;2024-02-15T09:47:35;8.80;;;5.03;;
80983;SDS011;73733;53.046;8.724;2024-02-15T09:50:11;9.77;;;6.60;;
80983;SDS011;73733;53.046;8.724;2024-02-15T09:52:44;8.77;;;6.45;;
80983;SDS011;73733;53.046;8.724;2024-02-15T09:55:10;11.93;;;6.68;;
80983;SDS011;73733;53.046;8.724;2024-02-15T09:57:42;10.02;;;5.70;;
80983;SDS011;73733;53.046;8.724;2024-02-15T10:00:08;10.20;;;6.40;;
80983;SDS011;73733;53.046;8.724;2024-02-15T10:02:38;8.35;;;5.78;;
80983;SDS011;73733;53.046;8.724;2024-02-15T10:05:05;9.43;;;5.55;;
80983;SDS011;73733;53.046;8.724;2024-02-15T10:07:30;12.32;;;6.75;;
80983;SDS011;73733;53.046;8.724;2024-02-15T10:09:56;8.52;;;6.10;;
80983;SDS011;73733;53.046;8.724;2024-02-15T10:12:21;10.50;;;5.57;;
80983;SDS011;73733;53.046;8.724;2024-02-15T10:14:48;8.93;;;5.70;;
80983;SDS011;73733;53.046;8.724;2024-02-15T10:17:14;9.27;;;6.28;;
80983;SDS011;73733;53.046;8.724;2024-02-15T10:19:42;7.25;;;5.15;;
80983;SDS011;73733;53.046;8.724;2024-02-15T10:22:09;7.47;;;5.90;;
80983;SDS011;73733;53.046;8.724;2024-02-15T10:24:35;10.00;;;6.43;;
80983;SDS011;73733;53.046;8.724;2024-02-15T10:27:02;9.68;;;5.95;;
80983;SDS011;73733;53.046;8.724;2024-02-15T10:31:54;7.07;;;4.73;;
80983;SDS011;73733;53.046;8.724;2024-02-15T10:34:24;7.53;;;5.18;;
80983;SDS011;73733;53.046;8.724;2024-02-15T10:36:52;7.30;;;5.43;;
80983;SDS011;73733;53.046;8.724;2024-02-15T10:39:18;9.18;;;5.32;;
80983;SDS011;73733;53.046;8.724;2024-02-15T10:41:49;6.60;;;4.70;;
80983;SDS011;73733;53.046;8.724;2024-02-15T10:44:16;6.65;;;4.55;;
80983;SDS011;73733;53.046;8.724;2024-02-15T10:46:44;7.90;;;5.10;;
80983;SDS011;73733;53.046;8.724;2024-02-15T10:49:11;8.48;;;5.22;;
80983;SDS011;73733;53.046;8.724;2024-02-15T10:51:36;6.30;;;3.88;;
80983;SDS011;73733;53.046;8.724;2024-02-15T10:54:07;6.45;;;4.95;;
80983;SDS011;73733;53.046;8.724;2024-02-15T10:56:37;6.35;;;4.78;;
80983;SDS011;73733;53.046;8.724;2024-02-15T10:59:17;6.40;;;4.60;;
80983;SDS011;73733;53.046;8.724;2024-02-15T11:01:45;6.32;;;5.03;;
80983;SDS011;73733;53.046;8.724;2024-02-15T11:04:13;8.02;;;4.45;;
80983;SDS011;73733;53.046;8.724;2024-02-15T11:06:39;5.53;;;4.03;;
80983;SDS011;73733;53.046;8.724;2024-02-15T11:09:08;6.43;;;4.03;;
80983;SDS011;73733;53.046;8.724;2024-02-15T11:11:36;5.00;;;4.07;;
80983;SDS011;73733;53.046;8.724;2024-02-15T11:16:54;6.28;;;4.53;;
80983;SDS011;73733;53.046;8.724;2024-02-15T11:22:05;5.55;;;3.83;;
80983;SDS011;73733;53.046;8.724;2024-02-15T11:24:34;7.05;;;4.20;;
80983;SDS011;73733;53.046;8.724;2024-02-15T11:27:02;7.22;;;4.18;;
80983;SDS011;73733;53.046;8.724;2024-02-15T11:29:47;5.03;;;3.72;;
80983;SDS011;73733;53.046;8.724;2024-02-15T11:35:14;4.43;;;3.58;;
80983;SDS011;73733;53.046;8.724;2024-02-15T11:40:15;4.57;;;3.30;;
80983;SDS011;73733;53.046;8.724;2024-02-15T11:42:42;5.18;;;4.05;;
80983;SDS011;73733;53.046;8.724;2024-02-15T11:45:08;6.10;;;3.83;;
80983;SDS011;73733;53.046;8.724;2024-02-15T11:47:35;3.85;;;3.15;;
80983;SDS011;73733;53.046;8.724;2024-02-15T11:50:02;5.30;;;4.00;;
80983;SDS011;73733;53.046;8.724;2024-02-15T11:52:30;4.20;;;3.05;;
80983;SDS011;73733;53.046;8.724;2024-02-15T11:55:04;6.07;;;4.40;;
80983;SDS011;73733;53.046;8.724;2024-02-15T11:57:29;4.65;;;3.85;;
80983;SDS011;73733;53.046;8.724;2024-02-15T12:02:48;4.72;;;3.25;;
80983;SDS011;73733;53.046;8.724;2024-02-15T12:05:32;7.10;;;3.72;;
80983;SDS011;73733;53.046;8.724;2024-02-15T12:08:16;3.70;;;3.15;;
80983;SDS011;73733;53.046;8.724;2024-02-15T12:11:00;4.45;;;3.00;;
80983;SDS011;73733;53.046;8.724;2024-02-15T12:13:49;5.25;;;3.13;;
80983;SDS011;73733;53.046;8.724;2024-02-15T12:16:35;5.30;;;3.58;;
80983;SDS011;73733;53.046;8.724;2024-02-15T12:19:19;3.70;;;3.08;;
80983;SDS011;73733;53.046;8.724;2024-02-15T12:21:46;4.28;;;3.25;;
80983;SDS011;73733;53.046;8.724;2024-02-15T12:24:12;4.50;;;3.30;;
80983;SDS011;73733;53.046;8.724;2024-02-15T12:26:38;5.45;;;3.30;;
80983;SDS011;73733;53.046;8.724;2024-02-15T12:29:06;4.18;;;3.00;;
80983;SDS011;73733;53.046;8.724;2024-02-15T12:31:33;4.15;;;3.20;;
80983;SDS011;73733;53.046;8.724;2024-02-15T12:34:03;5.03;;;3.15;;
80983;SDS011;73733;53.046;8.724;2024-02-15T12:36:32;4.88;;;3.10;;
80983;SDS011;73733;53.046;8.724;2024-02-15T12:39:02;4.90;;;3.15;;
80983;SDS011;73733;53.046;8.724;2024-02-15T12:41:34;3.90;;;2.97;;
80983;SDS011;73733;53.046;8.724;2024-02-15T12:43:59;4.13;;;2.93;;
80983;SDS011;73733;53.046;8.724;2024-02-15T12:46:26;3.60;;;2.80;;
80983;SDS011;73733;53.046;8.724;2024-02-15T12:49:05;3.83;;;2.50;;
80983;SDS011;73733;53.046;8.724;2024-02-15T12:51:31;2.80;;;2.20;;
80983;SDS011;73733;53.046;8.724;2024-02-15T12:54:07;5.47;;;3.57;;
80983;SDS011;73733;53.046;8.724;2024-02-15T12:56:33;3.30;;;2.55;;
80983;SDS011;73733;53.046;8.724;2024-02-15T12:58:59;4.27;;;3.20;;
80983;SDS011;73733;53.046;8.724;2024-02-15T13:01:24;3.42;;;3.03;;
80983;SDS011;73733;53.046;8.724;2024-02-15T13:03:51;4.00;;;2.50;;
80983;SDS011;73733;53.046;8.724;2024-02-15T13:06:16;3.00;;;2.35;;
80983;SDS011;73733;53.046;8.724;2024-02-15T13:08:43;3.17;;;2.75;;
80983;SDS011;73733;53.046;8.724;2024-02-15T13:11:13;3.15;;;2.55;;
80983;SDS011;73733;53.046;8.724;2024-02-15T13:13:40;2.85;;;2.60;;
80983;SDS011;73733;53.046;8.724;2024-02-15T13:16:07;4.53;;;2.60;;
80983;SDS011;73733;53.046;8.724;2024-02-15T13:18:32;2.92;;;2.33;;
80983;SDS011;73733;53.046;8.724;2024-02-15T13:20:58;2.40;;;2.20;;
80983;SDS011;73733;53.046;8.724;2024-02-15T13:23:23;2.83;;;2.43;;
80983;SDS011;73733;53.046;8.724;2024-02-15T13:25:50;3.10;;;2.80;;
80983;SDS011;73733;53.046;8.724;2024-02-15T13:28:17;6.43;;;3.55;;
80983;SDS011;73733;53.046;8.724;2024-02-15T13:30:43;4.40;;;2.30;;
80983;SDS011;73733;53.046;8.724;2024-02-15T13:33:10;2.92;;;2.20;;
80983;SDS011;73733;53.046;8.724;2024-02-15T13:35:35;3.33;;;2.28;;
80983;SDS011;73733;53.046;8.724;2024-02-15T13:38:01;3.90;;;2.50;;
80983;SDS011;73733;53.046;8.724;2024-02-15T13:40:27;2.60;;;2.30;;
80983;SDS011;73733;53.046;8.724;2024-02-15T13:42:55;2.80;;;2.30;;
80983;SDS011;73733;53.046;8.724;2024-02-15T13:45:24;3.08;;;2.33;;
80983;SDS011;73733;53.046;8.724;2024-02-15T13:47:55;2.03;;;1.80;;
80983;SDS011;73733;53.046;8.724;2024-02-15T13:50:21;1.90;;;1.67;;
80983;SDS011;73733;53.046;8.724;2024-02-15T13:52:46;2.60;;;1.98;;
80983;SDS011;73733;53.046;8.724;2024-02-15T13:55:13;3.90;;;1.90;;
80983;SDS011;73733;53.046;8.724;2024-02-15T13:57:39;2.38;;;1.88;;
80983;SDS011;73733;53.046;8.724;2024-02-15T14:02:38;2.28;;;2.03;;
80983;SDS011;73733;53.046;8.724;2024-02-15T14:05:03;6.07;;;2.40;;
80983;SDS011;73733;53.046;8.724;2024-02-15T14:07:33;2.50;;;1.85;;
80983;SDS011;73733;53.046;8.724;2024-02-15T14:09:58;5.80;;;1.97;;
80983;SDS011;73733;53.046;8.724;2024-02-15T14:12:23;2.97;;;2.10;;
80983;SDS011;73733;53.046;8.724;2024-02-15T14:14:49;3.10;;;1.70;;
80983;SDS011;73733;53.046;8.724;2024-02-15T14:17:14;2.73;;;1.80;;
80983;SDS011;73733;53.046;8.724;2024-02-15T14:19:40;3.10;;;2.40;;
80983;SDS011;73733;53.046;8.724;2024-02-15T14:22:05;2.90;;;2.20;;
80983;SDS011;73733;53.046;8.724;2024-02-15T14:24:34;2.67;;;1.90;;
80983;SDS011;73733;53.046;8.724;2024-02-15T14:26:59;2.03;;;1.83;;
80983;SDS011;73733;53.046;8.724;2024-02-15T14:29:24;2.93;;;1.83;;
80983;SDS011;73733;53.046;8.724;2024-02-15T14:31:53;3.30;;;2.20;;
80983;SDS011;73733;53.046;8.724;2024-02-15T14:34:37;3.42;;;2.13;;
80983;SDS011;73733;53.046;8.724;2024-02-15T14:37:03;3.07;;;2.33;;
80983;SDS011;73733;53.046;8.724;2024-02-15T14:39:30;3.08;;;1.90;;
80983;SDS011;73733;53.046;8.724;2024-02-15T14:41:56;3.10;;;2.17;;
80983;SDS011;73733;53.046;8.724;2024-02-15T14:44:21;2.20;;;1.98;;
80983;SDS011;73733;53.046;8.724;2024-02-15T14:46:48;3.63;;;2.05;;
80983;SDS011;73733;53.046;8.724;2024-02-15T14:49:13;3.47;;;2.17;;
80983;SDS011;73733;53.046;8.724;2024-02-15T14:51:39;3.33;;;2.00;;
80983;SDS011;73733;53.046;8.724;2024-02-15T14:54:04;2.33;;;1.67;;
80983;SDS011;73733;53.046;8.724;2024-02-15T14:56:29;2.70;;;1.80;;
80983;SDS011;73733;53.046;8.724;2024-02-15T15:01:22;3.57;;;2.73;;
80983;SDS011;73733;53.046;8.724;2024-02-15T15:03:52;1.92;;;1.33;;
80983;SDS011;73733;53.046;8.724;2024-02-15T15:06:20;4.22;;;2.20;;
80983;SDS011;73733;53.046;8.724;2024-02-15T15:09:04;2.45;;;1.63;;
80983;SDS011;73733;53.046;8.724;2024-02-15T15:11:48;2.60;;;1.75;;
80983;SDS011;73733;53.046;8.724;2024-02-15T15:14:32;3.72;;;1.30;;
80983;SDS011;73733;53.046;8.724;2024-02-15T15:16:57;1.60;;;1.30;;
80983;SDS011;73733;53.046;8.724;2024-02-15T15:19:23;2.40;;;1.40;;
80983;SDS011;73733;53.046;8.724;2024-02-15T15:21:48;2.23;;;1.47;;